KAXN

Chandler Field Airport

Alexandria, Minnesota, USA
METAR KAXN 242004Z AUTO 05009KT 1/4SM +SN FZFG VV008 M06/M08 A2982 RMK AO2 PRESFR P0001 T10611078
Observed Flight Rules
Feb-24 @ 20:04 UTC (11 minutes ago) Instrument Flight Rules
Wind Visibility Clouds Conditions
50° at 9 knots 1/4 miles
  • Vertical visibility at 800' AGL
  • Heavy Snow
  • Freezing
  • Fog
Temperatures Readings Precipitation
Current -6°C / 21°F
Dewpoint -8°C / 18°F
Humidity 86%
Altimeter 29.82" Hg
Pressure 1010 hPa
Elevation 433
Current Rain 0.01
METAR KAXN 242004Z AUTO 05009KT 1/4SM +SN FZFG VV008 M06/M08 A2982 RMK AO2 PRESFR P0001 T10611078
Observed Flight Rules
Feb-24 @ 20:04 UTC
(11 minutes ago)
LIFR
Wind Visibility
50° at 9 knots 1/4 miles
Clouds
  • Vertical visibility at 800' AGL
Conditions
  • Heavy Snow
  • Freezing
  • Fog
Temperature Dewpoint
-6°C / 21°F -8°C / 18°F
Humidity Altimeter Pressure
86% 29.82" Hg 1010 hPa
Current Rain
0.01